sensor_id;sensor_type;location;lat;lon;timestamp;P1;durP1;ratioP1;P2;durP2;ratioP2
2618;SDS011;1319;52.346;13.096;2022-08-11T00:02:31;6.37;;;5.47;;
2618;SDS011;1319;52.346;13.096;2022-08-11T00:04:56;5.63;;;5.00;;
2618;SDS011;1319;52.346;13.096;2022-08-11T00:07:25;8.33;;;5.80;;
2618;SDS011;1319;52.346;13.096;2022-08-11T00:09:51;13.00;;;6.90;;
2618;SDS011;1319;52.346;13.096;2022-08-11T00:12:17;12.57;;;6.40;;
2618;SDS011;1319;52.346;13.096;2022-08-11T00:14:42;10.67;;;6.40;;
2618;SDS011;1319;52.346;13.096;2022-08-11T00:17:09;12.13;;;7.13;;
2618;SDS011;1319;52.346;13.096;2022-08-11T00:19:36;12.70;;;6.53;;
2618;SDS011;1319;52.346;13.096;2022-08-11T00:22:02;14.07;;;6.63;;
2618;SDS011;1319;52.346;13.096;2022-08-11T00:24:34;14.60;;;6.33;;
2618;SDS011;1319;52.346;13.096;2022-08-11T00:27:00;6.63;;;5.83;;
2618;SDS011;1319;52.346;13.096;2022-08-11T00:29:25;11.50;;;6.30;;
2618;SDS011;1319;52.346;13.096;2022-08-11T00:31:51;11.37;;;5.80;;
2618;SDS011;1319;52.346;13.096;2022-08-11T00:34:19;6.93;;;5.53;;
2618;SDS011;1319;52.346;13.096;2022-08-11T00:36:47;6.33;;;5.20;;
2618;SDS011;1319;52.346;13.096;2022-08-11T00:39:14;9.20;;;5.57;;
2618;SDS011;1319;52.346;13.096;2022-08-11T00:49:42;9.03;;;5.77;;
2618;SDS011;1319;52.346;13.096;2022-08-11T00:57:24;8.93;;;6.13;;
2618;SDS011;1319;52.346;13.096;2022-08-11T01:07:52;9.17;;;5.53;;
2618;SDS011;1319;52.346;13.096;2022-08-11T01:13:13;8.97;;;6.37;;
2618;SDS011;1319;52.346;13.096;2022-08-11T01:21:01;12.57;;;7.23;;
2618;SDS011;1319;52.346;13.096;2022-08-11T01:33:41;8.97;;;5.47;;
2618;SDS011;1319;52.346;13.096;2022-08-11T01:44:38;7.67;;;5.07;;
2618;SDS011;1319;52.346;13.096;2022-08-11T01:50:06;5.30;;;4.80;;
2618;SDS011;1319;52.346;13.096;2022-08-11T01:52:47;5.73;;;5.13;;
2618;SDS011;1319;52.346;13.096;2022-08-11T01:55:21;7.43;;;4.80;;
2618;SDS011;1319;52.346;13.096;2022-08-11T01:58:34;6.87;;;4.83;;
2618;SDS011;1319;52.346;13.096;2022-08-11T02:00:45;8.90;;;5.23;;
2618;SDS011;1319;52.346;13.096;2022-08-11T02:03:19;6.60;;;5.20;;
2618;SDS011;1319;52.346;13.096;2022-08-11T02:10:46;6.70;;;5.00;;
2618;SDS011;1319;52.346;13.096;2022-08-11T02:13:35;6.93;;;5.60;;
2618;SDS011;1319;52.346;13.096;2022-08-11T02:16:09;6.30;;;5.70;;
2618;SDS011;1319;52.346;13.096;2022-08-11T02:18:37;7.07;;;5.70;;
2618;SDS011;1319;52.346;13.096;2022-08-11T02:21:26;5.93;;;4.93;;
2618;SDS011;1319;52.346;13.096;2022-08-11T02:24:18;10.57;;;5.40;;
2618;SDS011;1319;52.346;13.096;2022-08-11T02:26:49;6.13;;;5.30;;
2618;SDS011;1319;52.346;13.096;2022-08-11T02:29:21;7.67;;;5.40;;
2618;SDS011;1319;52.346;13.096;2022-08-11T02:35:07;9.03;;;5.73;;
2618;SDS011;1319;52.346;13.096;2022-08-11T02:37:37;9.60;;;5.00;;
2618;SDS011;1319;52.346;13.096;2022-08-11T02:47:47;11.03;;;5.03;;
2618;SDS011;1319;52.346;13.096;2022-08-11T02:50:36;7.27;;;4.90;;
2618;SDS011;1319;52.346;13.096;2022-08-11T02:58:19;5.50;;;4.90;;
2618;SDS011;1319;52.346;13.096;2022-08-11T03:01:02;7.50;;;5.10;;
2618;SDS011;1319;52.346;13.096;2022-08-11T03:03:29;9.27;;;4.87;;
2618;SDS011;1319;52.346;13.096;2022-08-11T03:06:19;6.93;;;5.40;;
2618;SDS011;1319;52.346;13.096;2022-08-11T03:22:18;5.70;;;5.00;;
2618;SDS011;1319;52.346;13.096;2022-08-11T03:35:42;13.60;;;4.80;;
2618;SDS011;1319;52.346;13.096;2022-08-11T03:38:10;5.63;;;4.80;;
2618;SDS011;1319;52.346;13.096;2022-08-11T03:43:27;7.43;;;4.43;;
2618;SDS011;1319;52.346;13.096;2022-08-11T03:46:12;7.87;;;5.50;;
2618;SDS011;1319;52.346;13.096;2022-08-11T03:48:58;6.53;;;5.10;;
2618;SDS011;1319;52.346;13.096;2022-08-11T03:51:30;5.77;;;4.73;;
2618;SDS011;1319;52.346;13.096;2022-08-11T03:59:02;8.03;;;5.07;;
2618;SDS011;1319;52.346;13.096;2022-08-11T04:06:51;11.00;;;6.00;;
2618;SDS011;1319;52.346;13.096;2022-08-11T04:22:53;6.57;;;4.70;;
2618;SDS011;1319;52.346;13.096;2022-08-11T04:25:48;7.90;;;4.40;;
2618;SDS011;1319;52.346;13.096;2022-08-11T04:39:33;9.73;;;5.30;;
2618;SDS011;1319;52.346;13.096;2022-08-11T04:42:11;10.70;;;5.40;;
2618;SDS011;1319;52.346;13.096;2022-08-11T04:45:07;6.27;;;5.13;;
2618;SDS011;1319;52.346;13.096;2022-08-11T04:50:45;10.30;;;5.30;;
2618;SDS011;1319;52.346;13.096;2022-08-11T04:56:38;5.43;;;4.47;;
2618;SDS011;1319;52.346;13.096;2022-08-11T04:59:39;5.73;;;4.60;;
2618;SDS011;1319;52.346;13.096;2022-08-11T05:02:43;8.43;;;5.30;;
2618;SDS011;1319;52.346;13.096;2022-08-11T05:05:22;6.70;;;4.93;;
2618;SDS011;1319;52.346;13.096;2022-08-11T05:13:11;8.10;;;4.77;;
2618;SDS011;1319;52.346;13.096;2022-08-11T05:16:08;6.37;;;4.60;;
2618;SDS011;1319;52.346;13.096;2022-08-11T05:18:53;5.40;;;4.90;;
2618;SDS011;1319;52.346;13.096;2022-08-11T05:21:40;9.80;;;4.60;;
2618;SDS011;1319;52.346;13.096;2022-08-11T05:24:29;8.17;;;4.90;;
2618;SDS011;1319;52.346;13.096;2022-08-11T05:27:13;8.13;;;4.73;;
2618;SDS011;1319;52.346;13.096;2022-08-11T05:30:03;8.10;;;5.20;;
2618;SDS011;1319;52.346;13.096;2022-08-11T05:32:54;9.93;;;5.33;;
2618;SDS011;1319;52.346;13.096;2022-08-11T05:35:44;11.57;;;5.30;;
2618;SDS011;1319;52.346;13.096;2022-08-11T05:38:19;9.30;;;5.10;;
2618;SDS011;1319;52.346;13.096;2022-08-11T05:41:05;8.53;;;4.57;;
2618;SDS011;1319;52.346;13.096;2022-08-11T05:43:49;5.50;;;4.77;;
2618;SDS011;1319;52.346;13.096;2022-08-11T05:46:37;6.53;;;5.17;;
2618;SDS011;1319;52.346;13.096;2022-08-11T05:49:22;9.07;;;4.60;;
2618;SDS011;1319;52.346;13.096;2022-08-11T05:52:12;8.13;;;4.93;;
2618;SDS011;1319;52.346;13.096;2022-08-11T05:54:59;8.90;;;4.73;;
2618;SDS011;1319;52.346;13.096;2022-08-11T05:57:44;12.00;;;5.23;;
2618;SDS011;1319;52.346;13.096;2022-08-11T06:00:10;5.83;;;4.87;;
2618;SDS011;1319;52.346;13.096;2022-08-11T06:02:39;7.37;;;4.97;;
2618;SDS011;1319;52.346;13.096;2022-08-11T06:05:05;8.43;;;5.17;;
2618;SDS011;1319;52.346;13.096;2022-08-11T06:07:30;7.17;;;5.30;;
2618;SDS011;1319;52.346;13.096;2022-08-11T06:09:57;11.10;;;5.20;;
2618;SDS011;1319;52.346;13.096;2022-08-11T06:12:29;11.67;;;5.20;;
2618;SDS011;1319;52.346;13.096;2022-08-11T06:14:56;10.53;;;5.20;;
2618;SDS011;1319;52.346;13.096;2022-08-11T06:17:26;6.17;;;4.93;;
2618;SDS011;1319;52.346;13.096;2022-08-11T06:19:57;9.67;;;5.47;;
2618;SDS011;1319;52.346;13.096;2022-08-11T06:22:23;7.27;;;4.90;;
2618;SDS011;1319;52.346;13.096;2022-08-11T06:24:50;7.53;;;4.90;;
2618;SDS011;1319;52.346;13.096;2022-08-11T06:27:20;6.10;;;4.40;;
2618;SDS011;1319;52.346;13.096;2022-08-11T06:29:47;8.80;;;5.20;;
2618;SDS011;1319;52.346;13.096;2022-08-11T06:32:13;12.87;;;5.33;;
2618;SDS011;1319;52.346;13.096;2022-08-11T06:34:46;6.93;;;5.13;;
2618;SDS011;1319;52.346;13.096;2022-08-11T06:37:15;5.37;;;4.63;;
2618;SDS011;1319;52.346;13.096;2022-08-11T06:42:08;5.77;;;4.67;;
2618;SDS011;1319;52.346;13.096;2022-08-11T06:45:11;9.23;;;4.20;;
2618;SDS011;1319;52.346;13.096;2022-08-11T06:47:29;8.23;;;4.60;;
2618;SDS011;1319;52.346;13.096;2022-08-11T06:49:54;7.20;;;4.20;;
2618;SDS011;1319;52.346;13.096;2022-08-11T06:52:40;8.50;;;4.53;;
2618;SDS011;1319;52.346;13.096;2022-08-11T06:55:13;9.73;;;4.60;;
2618;SDS011;1319;52.346;13.096;2022-08-11T06:57:59;8.33;;;4.57;;
2618;SDS011;1319;52.346;13.096;2022-08-11T07:00:43;7.23;;;4.40;;
2618;SDS011;1319;52.346;13.096;2022-08-11T07:03:12;7.43;;;4.37;;
2618;SDS011;1319;52.346;13.096;2022-08-11T07:05:51;8.23;;;4.60;;
2618;SDS011;1319;52.346;13.096;2022-08-11T07:14:04;4.93;;;3.97;;
2618;SDS011;1319;52.346;13.096;2022-08-11T07:16:49;9.53;;;4.43;;
2618;SDS011;1319;52.346;13.096;2022-08-11T07:19:24;6.40;;;4.20;;
2618;SDS011;1319;52.346;13.096;2022-08-11T07:22:09;7.17;;;4.57;;
2618;SDS011;1319;52.346;13.096;2022-08-11T07:24:57;6.57;;;4.47;;
2618;SDS011;1319;52.346;13.096;2022-08-11T07:27:55;6.33;;;3.87;;
2618;SDS011;1319;52.346;13.096;2022-08-11T07:30:40;4.97;;;4.20;;
2618;SDS011;1319;52.346;13.096;2022-08-11T07:33:06;6.33;;;4.10;;
2618;SDS011;1319;52.346;13.096;2022-08-11T07:35:51;9.07;;;4.00;;
2618;SDS011;1319;52.346;13.096;2022-08-11T07:38:23;8.33;;;3.80;;
2618;SDS011;1319;52.346;13.096;2022-08-11T07:41:07;7.13;;;4.10;;
2618;SDS011;1319;52.346;13.096;2022-08-11T07:43:33;4.93;;;3.90;;
2618;SDS011;1319;52.346;13.096;2022-08-11T07:45:59;8.70;;;3.90;;
2618;SDS011;1319;52.346;13.096;2022-08-11T07:48:45;6.93;;;4.17;;
2618;SDS011;1319;52.346;13.096;2022-08-11T07:51:29;11.67;;;4.10;;
2618;SDS011;1319;52.346;13.096;2022-08-11T07:54:13;6.00;;;4.10;;
2618;SDS011;1319;52.346;13.096;2022-08-11T07:56:39;7.77;;;4.03;;
2618;SDS011;1319;52.346;13.096;2022-08-11T07:59:04;5.97;;;4.07;;
2618;SDS011;1319;52.346;13.096;2022-08-11T08:01:48;7.27;;;3.93;;
2618;SDS011;1319;52.346;13.096;2022-08-11T08:04:33;5.23;;;3.80;;
2618;SDS011;1319;52.346;13.096;2022-08-11T08:07:18;10.00;;;4.37;;
2618;SDS011;1319;52.346;13.096;2022-08-11T08:10:02;8.77;;;3.77;;
2618;SDS011;1319;52.346;13.096;2022-08-11T08:12:48;8.30;;;3.67;;
2618;SDS011;1319;52.346;13.096;2022-08-11T08:15:32;3.50;;;3.20;;
2618;SDS011;1319;52.346;13.096;2022-08-11T08:18:16;11.50;;;3.60;;
2618;SDS011;1319;52.346;13.096;2022-08-11T08:20:46;4.97;;;3.35;;
2618;SDS011;1319;52.346;13.096;2022-08-11T08:23:11;4.25;;;3.40;;
2618;SDS011;1319;52.346;13.096;2022-08-11T08:25:39;7.88;;;3.25;;
2618;SDS011;1319;52.346;13.096;2022-08-11T08:28:06;4.00;;;3.40;;
2618;SDS011;1319;52.346;13.096;2022-08-11T08:30:34;6.32;;;3.45;;
2618;SDS011;1319;52.346;13.096;2022-08-11T08:33:12;5.45;;;3.83;;
2618;SDS011;1319;52.346;13.096;2022-08-11T08:35:39;15.07;;;3.92;;
2618;SDS011;1319;52.346;13.096;2022-08-11T08:38:05;3.38;;;3.17;;
2618;SDS011;1319;52.346;13.096;2022-08-11T08:40:30;5.18;;;3.25;;
2618;SDS011;1319;52.346;13.096;2022-08-11T08:42:56;4.40;;;3.20;;
2618;SDS011;1319;52.346;13.096;2022-08-11T08:45:22;6.75;;;3.50;;
2618;SDS011;1319;52.346;13.096;2022-08-11T08:47:58;5.28;;;3.17;;
2618;SDS011;1319;52.346;13.096;2022-08-11T08:50:26;5.72;;;3.25;;
2618;SDS011;1319;52.346;13.096;2022-08-11T08:53:11;6.63;;;3.03;;
2618;SDS011;1319;52.346;13.096;2022-08-11T08:55:37;6.40;;;3.50;;
2618;SDS011;1319;52.346;13.096;2022-08-11T08:58:04;3.10;;;2.80;;
2618;SDS011;1319;52.346;13.096;2022-08-11T09:00:36;4.45;;;3.00;;
2618;SDS011;1319;52.346;13.096;2022-08-11T09:03:02;7.25;;;3.15;;
2618;SDS011;1319;52.346;13.096;2022-08-11T09:05:28;9.93;;;3.20;;
2618;SDS011;1319;52.346;13.096;2022-08-11T09:07:53;4.87;;;3.00;;
2618;SDS011;1319;52.346;13.096;2022-08-11T09:10:19;4.43;;;2.90;;
2618;SDS011;1319;52.346;13.096;2022-08-11T09:12:44;4.60;;;2.95;;
2618;SDS011;1319;52.346;13.096;2022-08-11T09:15:10;3.20;;;2.90;;
2618;SDS011;1319;52.346;13.096;2022-08-11T09:17:56;6.55;;;2.80;;
2618;SDS011;1319;52.346;13.096;2022-08-11T09:20:27;4.15;;;2.72;;
2618;SDS011;1319;52.346;13.096;2022-08-11T09:22:57;8.07;;;3.00;;
2618;SDS011;1319;52.346;13.096;2022-08-11T09:25:41;11.05;;;3.00;;
2618;SDS011;1319;52.346;13.096;2022-08-11T09:28:26;3.72;;;2.60;;
2618;SDS011;1319;52.346;13.096;2022-08-11T09:30:53;2.53;;;2.33;;
2618;SDS011;1319;52.346;13.096;2022-08-11T09:33:20;6.47;;;3.20;;
2618;SDS011;1319;52.346;13.096;2022-08-11T09:35:46;4.75;;;3.05;;
2618;SDS011;1319;52.346;13.096;2022-08-11T09:38:12;3.17;;;2.95;;
2618;SDS011;1319;52.346;13.096;2022-08-11T09:40:56;7.65;;;2.75;;
2618;SDS011;1319;52.346;13.096;2022-08-11T09:43:22;6.82;;;2.83;;
2618;SDS011;1319;52.346;13.096;2022-08-11T09:46:06;4.22;;;2.72;;
2618;SDS011;1319;52.346;13.096;2022-08-11T09:48:37;4.40;;;2.72;;
2618;SDS011;1319;52.346;13.096;2022-08-11T09:51:03;7.82;;;2.80;;
2618;SDS011;1319;52.346;13.096;2022-08-11T09:53:32;4.65;;;2.70;;
2618;SDS011;1319;52.346;13.096;2022-08-11T09:55:59;5.70;;;2.60;;
2618;SDS011;1319;52.346;13.096;2022-08-11T09:58:44;5.00;;;2.47;;
2618;SDS011;1319;52.346;13.096;2022-08-11T10:01:09;6.40;;;2.40;;
2618;SDS011;1319;52.346;13.096;2022-08-11T10:03:50;4.20;;;2.60;;
2618;SDS011;1319;52.346;13.096;2022-08-11T10:06:17;3.58;;;2.75;;
2618;SDS011;1319;52.346;13.096;2022-08-11T10:09:01;7.88;;;3.67;;
2618;SDS011;1319;52.346;13.096;2022-08-11T10:11:29;14.50;;;4.35;;
2618;SDS011;1319;52.346;13.096;2022-08-11T10:13:54;8.63;;;3.42;;
2618;SDS011;1319;52.346;13.096;2022-08-11T10:16:38;5.63;;;2.88;;
2618;SDS011;1319;52.346;13.096;2022-08-11T10:19:05;6.65;;;2.90;;
2618;SDS011;1319;52.346;13.096;2022-08-11T10:21:46;6.78;;;2.72;;
2618;SDS011;1319;52.346;13.096;2022-08-11T10:24:32;2.83;;;2.63;;
2618;SDS011;1319;52.346;13.096;2022-08-11T10:27:16;5.47;;;2.58;;
2618;SDS011;1319;52.346;13.096;2022-08-11T10:29:41;2.80;;;2.60;;
2618;SDS011;1319;52.346;13.096;2022-08-11T10:32:26;6.47;;;2.50;;
2618;SDS011;1319;52.346;13.096;2022-08-11T10:35:11;4.00;;;2.40;;
2618;SDS011;1319;52.346;13.096;2022-08-11T10:37:38;4.63;;;2.90;;
2618;SDS011;1319;52.346;13.096;2022-08-11T10:40:04;5.25;;;2.42;;
2618;SDS011;1319;52.346;13.096;2022-08-11T10:42:30;3.47;;;2.63;;
2618;SDS011;1319;52.346;13.096;2022-08-11T10:45:14;4.97;;;3.08;;
2618;SDS011;1319;52.346;13.096;2022-08-11T10:47:58;8.60;;;2.50;;
2618;SDS011;1319;52.346;13.096;2022-08-11T10:50:23;2.97;;;2.65;;
2618;SDS011;1319;52.346;13.096;2022-08-11T10:53:07;2.90;;;2.70;;
2618;SDS011;1319;52.346;13.096;2022-08-11T10:55:51;6.00;;;2.45;;
2618;SDS011;1319;52.346;13.096;2022-08-11T10:58:35;3.95;;;2.28;;
2618;SDS011;1319;52.346;13.096;2022-08-11T11:03:46;8.55;;;3.05;;
2618;SDS011;1319;52.346;13.096;2022-08-11T11:06:23;5.28;;;2.55;;
2618;SDS011;1319;52.346;13.096;2022-08-11T11:08:55;5.13;;;2.40;;
2618;SDS011;1319;52.346;13.096;2022-08-11T11:11:22;12.80;;;2.80;;
2618;SDS011;1319;52.346;13.096;2022-08-11T11:14:08;4.43;;;2.85;;
2618;SDS011;1319;52.346;13.096;2022-08-11T11:16:53;3.25;;;2.40;;
2618;SDS011;1319;52.346;13.096;2022-08-11T11:19:37;3.17;;;2.45;;
2618;SDS011;1319;52.346;13.096;2022-08-11T11:22:03;2.65;;;2.45;;
2618;SDS011;1319;52.346;13.096;2022-08-11T11:24:58;7.03;;;2.60;;
2618;SDS011;1319;52.346;13.096;2022-08-11T11:27:30;3.92;;;2.63;;
2618;SDS011;1319;52.346;13.096;2022-08-11T11:30:00;3.42;;;2.78;;
2618;SDS011;1319;52.346;13.096;2022-08-11T11:37:39;2.97;;;2.67;;
2618;SDS011;1319;52.346;13.096;2022-08-11T11:40:15;4.40;;;2.45;;
2618;SDS011;1319;52.346;13.096;2022-08-11T11:42:42;7.25;;;2.47;;
2618;SDS011;1319;52.346;13.096;2022-08-11T11:45:08;5.50;;;2.40;;
2618;SDS011;1319;52.346;13.096;2022-08-11T11:47:34;2.63;;;2.40;;
2618;SDS011;1319;52.346;13.096;2022-08-11T11:50:00;8.00;;;2.78;;
2618;SDS011;1319;52.346;13.096;2022-08-11T11:52:25;6.38;;;2.53;;
2618;SDS011;1319;52.346;13.096;2022-08-11T11:54:53;4.75;;;2.70;;
2618;SDS011;1319;52.346;13.096;2022-08-11T11:57:19;7.30;;;2.53;;
2618;SDS011;1319;52.346;13.096;2022-08-11T12:00:04;5.32;;;2.70;;
2618;SDS011;1319;52.346;13.096;2022-08-11T12:02:49;3.65;;;2.40;;
2618;SDS011;1319;52.346;13.096;2022-08-11T12:05:15;5.63;;;2.80;;
2618;SDS011;1319;52.346;13.096;2022-08-11T12:07:40;4.32;;;2.50;;
2618;SDS011;1319;52.346;13.096;2022-08-11T12:10:24;2.60;;;2.40;;
2618;SDS011;1319;52.346;13.096;2022-08-11T12:12:50;2.97;;;2.33;;
2618;SDS011;1319;52.346;13.096;2022-08-11T12:15:34;8.30;;;2.92;;
2618;SDS011;1319;52.346;13.096;2022-08-11T12:18:01;4.97;;;2.30;;
2618;SDS011;1319;52.346;13.096;2022-08-11T12:20:26;6.65;;;2.60;;
2618;SDS011;1319;52.346;13.096;2022-08-11T12:22:52;4.18;;;2.65;;
2618;SDS011;1319;52.346;13.096;2022-08-11T12:25:37;4.97;;;2.85;;
2618;SDS011;1319;52.346;13.096;2022-08-11T12:28:21;3.50;;;2.35;;
2618;SDS011;1319;52.346;13.096;2022-08-11T12:30:47;6.63;;;2.50;;
2618;SDS011;1319;52.346;13.096;2022-08-11T12:33:13;3.50;;;2.10;;
2618;SDS011;1319;52.346;13.096;2022-08-11T12:35:38;2.67;;;2.33;;
2618;SDS011;1319;52.346;13.096;2022-08-11T12:38:04;3.75;;;2.63;;
2618;SDS011;1319;52.346;13.096;2022-08-11T12:40:30;3.40;;;2.40;;
2618;SDS011;1319;52.346;13.096;2022-08-11T12:43:15;6.00;;;2.58;;
2618;SDS011;1319;52.346;13.096;2022-08-11T12:46:01;2.60;;;2.40;;
2618;SDS011;1319;52.346;13.096;2022-08-11T12:48:30;7.43;;;2.60;;
2618;SDS011;1319;52.346;13.096;2022-08-11T12:51:15;6.00;;;2.63;;
2618;SDS011;1319;52.346;13.096;2022-08-11T12:54:12;3.78;;;2.67;;
2618;SDS011;1319;52.346;13.096;2022-08-11T12:56:40;3.92;;;2.20;;
2618;SDS011;1319;52.346;13.096;2022-08-11T12:59:25;2.70;;;2.30;;
2618;SDS011;1319;52.346;13.096;2022-08-11T13:02:09;3.20;;;2.40;;
2618;SDS011;1319;52.346;13.096;2022-08-11T13:04:54;3.30;;;2.50;;
2618;SDS011;1319;52.346;13.096;2022-08-11T13:07:23;7.85;;;2.70;;
2618;SDS011;1319;52.346;13.096;2022-08-11T13:09:49;4.47;;;2.60;;
2618;SDS011;1319;52.346;13.096;2022-08-11T13:12:14;4.25;;;2.50;;
2618;SDS011;1319;52.346;13.096;2022-08-11T13:14:59;4.82;;;2.70;;
2618;SDS011;1319;52.346;13.096;2022-08-11T13:17:25;5.38;;;2.67;;
2618;SDS011;1319;52.346;13.096;2022-08-11T13:19:53;3.67;;;2.67;;
2618;SDS011;1319;52.346;13.096;2022-08-11T13:22:20;3.58;;;2.85;;
2618;SDS011;1319;52.346;13.096;2022-08-11T13:24:46;3.00;;;2.65;;
2618;SDS011;1319;52.346;13.096;2022-08-11T13:27:12;4.22;;;2.60;;
2618;SDS011;1319;52.346;13.096;2022-08-11T13:29:40;7.00;;;2.55;;
2618;SDS011;1319;52.346;13.096;2022-08-11T13:32:06;5.85;;;2.80;;
2618;SDS011;1319;52.346;13.096;2022-08-11T13:34:32;4.97;;;2.60;;
2618;SDS011;1319;52.346;13.096;2022-08-11T13:37:00;7.57;;;3.13;;
2618;SDS011;1319;52.346;13.096;2022-08-11T13:39:29;3.47;;;2.83;;
2618;SDS011;1319;52.346;13.096;2022-08-11T13:41:56;4.03;;;2.55;;
2618;SDS011;1319;52.346;13.096;2022-08-11T13:44:21;5.80;;;2.83;;
2618;SDS011;1319;52.346;13.096;2022-08-11T13:46:48;3.10;;;2.80;;
2618;SDS011;1319;52.346;13.096;2022-08-11T13:49:15;2.70;;;2.60;;
2618;SDS011;1319;52.346;13.096;2022-08-11T13:51:40;6.07;;;2.95;;
2618;SDS011;1319;52.346;13.096;2022-08-11T13:54:16;8.98;;;2.70;;
2618;SDS011;1319;52.346;13.096;2022-08-11T13:56:46;6.95;;;2.83;;
2618;SDS011;1319;52.346;13.096;2022-08-11T13:59:12;2.55;;;2.45;;
2618;SDS011;1319;52.346;13.096;2022-08-11T14:01:38;4.28;;;2.50;;
2618;SDS011;1319;52.346;13.096;2022-08-11T14:04:17;3.97;;;2.60;;
2618;SDS011;1319;52.346;13.096;2022-08-11T14:06:45;5.45;;;2.53;;
2618;SDS011;1319;52.346;13.096;2022-08-11T14:09:12;2.85;;;2.65;;
2618;SDS011;1319;52.346;13.096;2022-08-11T14:11:38;4.75;;;2.50;;
2618;SDS011;1319;52.346;13.096;2022-08-11T14:14:26;6.93;;;2.72;;
2618;SDS011;1319;52.346;13.096;2022-08-11T14:16:55;2.95;;;2.65;;
2618;SDS011;1319;52.346;13.096;2022-08-11T14:19:21;6.40;;;2.55;;
2618;SDS011;1319;52.346;13.096;2022-08-11T14:21:48;2.78;;;2.38;;
2618;SDS011;1319;52.346;13.096;2022-08-11T14:24:40;4.45;;;2.22;;
2618;SDS011;1319;52.346;13.096;2022-08-11T14:27:07;3.60;;;2.50;;
2618;SDS011;1319;52.346;13.096;2022-08-11T14:29:33;5.88;;;2.75;;
2618;SDS011;1319;52.346;13.096;2022-08-11T14:32:03;2.75;;;2.40;;
2618;SDS011;1319;52.346;13.096;2022-08-11T14:34:29;4.03;;;2.78;;
2618;SDS011;1319;52.346;13.096;2022-08-11T14:37:00;8.57;;;2.63;;
2618;SDS011;1319;52.346;13.096;2022-08-11T14:39:27;3.05;;;2.72;;
2618;SDS011;1319;52.346;13.096;2022-08-11T14:41:57;2.72;;;2.53;;
2618;SDS011;1319;52.346;13.096;2022-08-11T14:44:48;4.10;;;2.83;;
2618;SDS011;1319;52.346;13.096;2022-08-11T14:47:33;2.67;;;2.47;;
2618;SDS011;1319;52.346;13.096;2022-08-11T14:49:59;8.45;;;2.75;;
2618;SDS011;1319;52.346;13.096;2022-08-11T14:52:26;5.13;;;2.53;;
2618;SDS011;1319;52.346;13.096;2022-08-11T14:54:52;2.80;;;2.25;;
2618;SDS011;1319;52.346;13.096;2022-08-11T14:57:37;2.70;;;2.50;;
2618;SDS011;1319;52.346;13.096;2022-08-11T15:00:03;6.18;;;2.90;;
2618;SDS011;1319;52.346;13.096;2022-08-11T15:02:29;3.25;;;2.42;;
2618;SDS011;1319;52.346;13.096;2022-08-11T15:05:12;4.15;;;2.85;;
2618;SDS011;1319;52.346;13.096;2022-08-11T15:07:38;3.88;;;2.55;;
2618;SDS011;1319;52.346;13.096;2022-08-11T15:10:05;5.25;;;2.30;;
2618;SDS011;1319;52.346;13.096;2022-08-11T15:12:31;2.50;;;2.40;;
2618;SDS011;1319;52.346;13.096;2022-08-11T15:14:57;2.90;;;2.30;;
2618;SDS011;1319;52.346;13.096;2022-08-11T15:17:41;3.92;;;2.33;;
2618;SDS011;1319;52.346;13.096;2022-08-11T15:20:12;4.07;;;2.25;;
2618;SDS011;1319;52.346;13.096;2022-08-11T15:22:56;3.53;;;2.53;;
2618;SDS011;1319;52.346;13.096;2022-08-11T15:25:42;6.45;;;2.33;;
2618;SDS011;1319;52.346;13.096;2022-08-11T15:28:09;4.43;;;2.45;;
2618;SDS011;1319;52.346;13.096;2022-08-11T15:30:54;2.33;;;2.13;;
2618;SDS011;1319;52.346;13.096;2022-08-11T15:33:39;2.10;;;2.00;;
2618;SDS011;1319;52.346;13.096;2022-08-11T15:36:24;2.65;;;2.05;;
2618;SDS011;1319;52.346;13.096;2022-08-11T15:39:16;3.42;;;2.25;;
2618;SDS011;1319;52.346;13.096;2022-08-11T15:41:44;3.63;;;2.38;;
2618;SDS011;1319;52.346;13.096;2022-08-11T15:44:30;5.55;;;2.10;;
2618;SDS011;1319;52.346;13.096;2022-08-11T15:47:15;3.70;;;2.17;;
2618;SDS011;1319;52.346;13.096;2022-08-11T15:49:41;2.72;;;2.20;;
2618;SDS011;1319;52.346;13.096;2022-08-11T15:52:09;8.05;;;2.28;;
2618;SDS011;1319;52.346;13.096;2022-08-11T15:54:37;3.90;;;1.80;;
2618;SDS011;1319;52.346;13.096;2022-08-11T15:57:03;2.63;;;1.90;;
2618;SDS011;1319;52.346;13.096;2022-08-11T15:59:33;2.53;;;1.88;;
2618;SDS011;1319;52.346;13.096;2022-08-11T16:02:19;3.83;;;2.00;;
2618;SDS011;1319;52.346;13.096;2022-08-11T16:05:09;1.90;;;1.80;;
2618;SDS011;1319;52.346;13.096;2022-08-11T16:07:35;3.85;;;1.95;;
2618;SDS011;1319;52.346;13.096;2022-08-11T16:10:02;3.60;;;2.00;;
2618;SDS011;1319;52.346;13.096;2022-08-11T16:12:56;4.68;;;2.03;;
2618;SDS011;1319;52.346;13.096;2022-08-11T16:15:30;3.22;;;1.70;;
2618;SDS011;1319;52.346;13.096;2022-08-11T16:18:14;7.22;;;1.90;;
2618;SDS011;1319;52.346;13.096;2022-08-11T16:20:40;3.30;;;1.73;;
2618;SDS011;1319;52.346;13.096;2022-08-11T16:23:05;2.97;;;2.10;;
2618;SDS011;1319;52.346;13.096;2022-08-11T16:25:32;20.17;;;7.47;;
2618;SDS011;1319;52.346;13.096;2022-08-11T16:27:59;3.75;;;2.05;;
2618;SDS011;1319;52.346;13.096;2022-08-11T16:30:35;4.70;;;1.95;;
2618;SDS011;1319;52.346;13.096;2022-08-11T16:33:01;20.50;;;6.35;;
2618;SDS011;1319;52.346;13.096;2022-08-11T16:35:29;5.53;;;1.83;;
2618;SDS011;1319;52.346;13.096;2022-08-11T16:38:14;3.72;;;1.77;;
2618;SDS011;1319;52.346;13.096;2022-08-11T16:40:59;1.88;;;1.73;;
2618;SDS011;1319;52.346;13.096;2022-08-11T16:43:27;6.72;;;1.60;;
2618;SDS011;1319;52.346;13.096;2022-08-11T16:46:11;2.78;;;1.95;;
2618;SDS011;1319;52.346;13.096;2022-08-11T16:48:56;14.05;;;3.83;;
2618;SDS011;1319;52.346;13.096;2022-08-11T16:51:22;4.95;;;2.58;;
2618;SDS011;1319;52.346;13.096;2022-08-11T16:53:49;9.63;;;3.10;;
2618;SDS011;1319;52.346;13.096;2022-08-11T16:56:15;5.50;;;2.10;;
2618;SDS011;1319;52.346;13.096;2022-08-11T16:58:42;12.30;;;4.25;;
2618;SDS011;1319;52.346;13.096;2022-08-11T17:01:27;6.15;;;3.22;;
2618;SDS011;1319;52.346;13.096;2022-08-11T17:03:55;3.83;;;1.77;;
2618;SDS011;1319;52.346;13.096;2022-08-11T17:06:43;6.00;;;1.77;;
2618;SDS011;1319;52.346;13.096;2022-08-11T17:09:27;2.40;;;1.58;;
2618;SDS011;1319;52.346;13.096;2022-08-11T17:12:12;10.02;;;1.95;;
2618;SDS011;1319;52.346;13.096;2022-08-11T17:14:57;2.97;;;1.80;;
2618;SDS011;1319;52.346;13.096;2022-08-11T17:17:35;4.80;;;1.67;;
2618;SDS011;1319;52.346;13.096;2022-08-11T17:20:02;1.80;;;1.67;;
2618;SDS011;1319;52.346;13.096;2022-08-11T17:22:31;3.53;;;1.60;;
2618;SDS011;1319;52.346;13.096;2022-08-11T17:25:15;4.82;;;1.55;;
2618;SDS011;1319;52.346;13.096;2022-08-11T17:27:42;2.15;;;1.80;;
2618;SDS011;1319;52.346;13.096;2022-08-11T17:30:07;5.57;;;1.80;;
2618;SDS011;1319;52.346;13.096;2022-08-11T17:32:37;2.70;;;1.58;;
2618;SDS011;1319;52.346;13.096;2022-08-11T17:35:22;3.05;;;1.65;;
2618;SDS011;1319;52.346;13.096;2022-08-11T17:38:14;1.75;;;1.65;;
2618;SDS011;1319;52.346;13.096;2022-08-11T17:40:41;7.45;;;2.03;;
2618;SDS011;1319;52.346;13.096;2022-08-11T17:43:26;5.75;;;1.95;;
2618;SDS011;1319;52.346;13.096;2022-08-11T17:46:11;4.50;;;1.70;;
2618;SDS011;1319;52.346;13.096;2022-08-11T17:48:55;6.25;;;1.50;;
2618;SDS011;1319;52.346;13.096;2022-08-11T17:51:20;1.60;;;1.50;;
2618;SDS011;1319;52.346;13.096;2022-08-11T17:54:05;10.98;;;3.40;;
2618;SDS011;1319;52.346;13.096;2022-08-11T17:56:49;22.98;;;6.05;;
2618;SDS011;1319;52.346;13.096;2022-08-11T17:59:35;9.90;;;3.38;;
2618;SDS011;1319;52.346;13.096;2022-08-11T18:02:25;11.50;;;4.00;;
2618;SDS011;1319;52.346;13.096;2022-08-11T18:05:11;9.85;;;3.42;;
2618;SDS011;1319;52.346;13.096;2022-08-11T18:07:37;5.47;;;1.80;;
2618;SDS011;1319;52.346;13.096;2022-08-11T18:10:22;9.80;;;3.90;;
2618;SDS011;1319;52.346;13.096;2022-08-11T18:13:07;11.35;;;4.68;;
2618;SDS011;1319;52.346;13.096;2022-08-11T18:15:51;8.98;;;4.07;;
2618;SDS011;1319;52.346;13.096;2022-08-11T18:18:35;6.35;;;3.05;;
2618;SDS011;1319;52.346;13.096;2022-08-11T18:21:20;10.95;;;4.50;;
2618;SDS011;1319;52.346;13.096;2022-08-11T18:24:06;10.65;;;3.10;;
2618;SDS011;1319;52.346;13.096;2022-08-11T18:26:51;5.50;;;2.50;;
2618;SDS011;1319;52.346;13.096;2022-08-11T18:29:35;10.90;;;4.88;;